Geel, Belgium
Current Conditions -  °F | °C
As of 1:25 PM on Friday 28 Nov 2014 (Local Time) from EBDT Reporting Station
Broken Clouds Broken Clouds  
Wind Chill: 45°   Ceiling: 8000
Heat Index: 48°   Visibility: 6mi
Dew Point: 43°   Wind: 7mph
Humidity: 82%   Direction: 70°ENE
Pressure: 29.71"   Gusts: NA
Location:  51.17°N, 4.99°E
Report Text: EBDT 281225Z 07006KT 9000 BKN080 09/06 Q1006 BLU BLU
Loading
Personal Weather Stations






























Interactive Weather Map New forecast layout! Learn more

10-Day Weather Forecast

Advertisements
Track Severe Weather on mobile